sensor_id;sensor_type;location;lat;lon;timestamp;pressure;altitude;pressure_sealevel;temperature;humidity
43878;BME280;29815;48.184;11.268;2023-12-20T00:01:23;95578.03;;;5.52;71.81
43878;BME280;29815;48.184;11.268;2023-12-20T00:03:53;95569.56;;;5.55;72.78
43878;BME280;29815;48.184;11.268;2023-12-20T00:06:22;95559.81;;;5.49;74.40
43878;BME280;29815;48.184;11.268;2023-12-20T00:08:51;95563.94;;;5.39;76.00
43878;BME280;29815;48.184;11.268;2023-12-20T00:11:21;95566.50;;;5.34;77.67
43878;BME280;29815;48.184;11.268;2023-12-20T00:13:50;95561.50;;;5.38;78.28
43878;BME280;29815;48.184;11.268;2023-12-20T00:16:20;95561.16;;;5.34;78.23
43878;BME280;29815;48.184;11.268;2023-12-20T00:18:51;95554.31;;;5.38;77.86
43878;BME280;29815;48.184;11.268;2023-12-20T00:21:21;95555.81;;;5.34;79.11
43878;BME280;29815;48.184;11.268;2023-12-20T00:23:50;95555.59;;;5.36;79.26
43878;BME280;29815;48.184;11.268;2023-12-20T00:26:19;95549.09;;;5.32;79.46
43878;BME280;29815;48.184;11.268;2023-12-20T00:28:49;95544.56;;;5.32;80.64
43878;BME280;29815;48.184;11.268;2023-12-20T00:31:18;95544.91;;;5.36;78.57
43878;BME280;29815;48.184;11.268;2023-12-20T00:33:47;95537.59;;;5.31;81.31
43878;BME280;29815;48.184;11.268;2023-12-20T00:36:18;95533.19;;;5.37;81.30
43878;BME280;29815;48.184;11.268;2023-12-20T00:38:47;95530.06;;;5.28;79.25
43878;BME280;29815;48.184;11.268;2023-12-20T00:41:17;95522.75;;;5.35;78.80
43878;BME280;29815;48.184;11.268;2023-12-20T00:43:47;95522.28;;;5.38;77.93
43878;BME280;29815;48.184;11.268;2023-12-20T00:46:16;95511.84;;;5.37;78.36
43878;BME280;29815;48.184;11.268;2023-12-20T00:48:46;95511.69;;;5.43;77.99
43878;BME280;29815;48.184;11.268;2023-12-20T00:51:15;95507.34;;;5.54;74.89
43878;BME280;29815;48.184;11.268;2023-12-20T00:53:46;95504.53;;;5.61;74.70
43878;BME280;29815;48.184;11.268;2023-12-20T00:56:17;95496.38;;;5.67;73.34
43878;BME280;29815;48.184;11.268;2023-12-20T00:58:46;95500.78;;;5.73;68.48
43878;BME280;29815;48.184;11.268;2023-12-20T01:01:15;95502.53;;;5.85;68.76
43878;BME280;29815;48.184;11.268;2023-12-20T01:03:45;95508.22;;;5.88;69.16
43878;BME280;29815;48.184;11.268;2023-12-20T01:06:14;95506.97;;;5.91;69.65
43878;BME280;29815;48.184;11.268;2023-12-20T01:08:45;95509.88;;;5.89;71.38
43878;BME280;29815;48.184;11.268;2023-12-20T01:11:15;95507.69;;;6.03;71.43
43878;BME280;29815;48.184;11.268;2023-12-20T01:13:44;95518.53;;;6.13;73.35
43878;BME280;29815;48.184;11.268;2023-12-20T01:16:13;95512.16;;;6.14;70.50
43878;BME280;29815;48.184;11.268;2023-12-20T01:18:43;95495.41;;;6.19;74.10
43878;BME280;29815;48.184;11.268;2023-12-20T01:21:12;95490.69;;;6.09;74.12
43878;BME280;29815;48.184;11.268;2023-12-20T01:23:41;95485.09;;;6.10;72.17
43878;BME280;29815;48.184;11.268;2023-12-20T01:26:12;95490.06;;;6.19;74.18
43878;BME280;29815;48.184;11.268;2023-12-20T01:28:41;95488.44;;;6.18;69.91
43878;BME280;29815;48.184;11.268;2023-12-20T01:31:11;95491.44;;;6.21;73.00
43878;BME280;29815;48.184;11.268;2023-12-20T01:33:40;95490.13;;;6.24;70.05
43878;BME280;29815;48.184;11.268;2023-12-20T01:36:10;95480.31;;;6.29;70.36
43878;BME280;29815;48.184;11.268;2023-12-20T01:38:40;95477.38;;;6.31;69.32
43878;BME280;29815;48.184;11.268;2023-12-20T01:41:09;95464.78;;;6.26;69.87
43878;BME280;29815;48.184;11.268;2023-12-20T01:43:39;95457.81;;;6.25;70.90
43878;BME280;29815;48.184;11.268;2023-12-20T01:46:18;95451.34;;;6.21;72.11
43878;BME280;29815;48.184;11.268;2023-12-20T01:48:48;95447.28;;;6.19;71.35
43878;BME280;29815;48.184;11.268;2023-12-20T01:51:18;95440.34;;;6.18;71.94
43878;BME280;29815;48.184;11.268;2023-12-20T01:53:47;95442.44;;;6.16;74.70
43878;BME280;29815;48.184;11.268;2023-12-20T01:56:17;95426.00;;;6.07;73.31
43878;BME280;29815;48.184;11.268;2023-12-20T01:58:48;95412.16;;;6.10;74.65
43878;BME280;29815;48.184;11.268;2023-12-20T02:01:17;95413.84;;;6.16;74.30
43878;BME280;29815;48.184;11.268;2023-12-20T02:03:46;95411.44;;;6.15;76.26
43878;BME280;29815;48.184;11.268;2023-12-20T02:06:16;95429.88;;;6.16;77.94
43878;BME280;29815;48.184;11.268;2023-12-20T02:08:47;95432.22;;;6.13;76.35
43878;BME280;29815;48.184;11.268;2023-12-20T02:11:17;95428.75;;;6.12;80.80
43878;BME280;29815;48.184;11.268;2023-12-20T02:13:48;95425.19;;;6.06;81.92
43878;BME280;29815;48.184;11.268;2023-12-20T02:16:17;95423.81;;;6.04;82.08
43878;BME280;29815;48.184;11.268;2023-12-20T02:18:50;95423.25;;;6.02;84.78
43878;BME280;29815;48.184;11.268;2023-12-20T02:21:25;95427.41;;;5.93;87.25
43878;BME280;29815;48.184;11.268;2023-12-20T02:23:54;95419.72;;;5.96;85.70
43878;BME280;29815;48.184;11.268;2023-12-20T02:26:23;95399.41;;;5.95;86.24
43878;BME280;29815;48.184;11.268;2023-12-20T02:28:52;95391.53;;;5.89;88.69
43878;BME280;29815;48.184;11.268;2023-12-20T02:31:22;95396.03;;;5.88;89.70
43878;BME280;29815;48.184;11.268;2023-12-20T02:33:52;95396.00;;;6.00;89.49
43878;BME280;29815;48.184;11.268;2023-12-20T02:36:20;95389.66;;;6.06;90.90
43878;BME280;29815;48.184;11.268;2023-12-20T02:38:51;95373.13;;;6.09;91.79
43878;BME280;29815;48.184;11.268;2023-12-20T02:41:20;95388.91;;;6.10;93.10
43878;BME280;29815;48.184;11.268;2023-12-20T02:43:49;95392.47;;;6.16;94.88
43878;BME280;29815;48.184;11.268;2023-12-20T02:46:19;95390.53;;;6.11;96.54
43878;BME280;29815;48.184;11.268;2023-12-20T02:48:49;95389.47;;;6.13;98.40
43878;BME280;29815;48.184;11.268;2023-12-20T02:51:18;95404.38;;;6.08;100.00
43878;BME280;29815;48.184;11.268;2023-12-20T02:53:47;95399.28;;;6.07;100.00
43878;BME280;29815;48.184;11.268;2023-12-20T02:56:18;95400.50;;;6.16;100.00
43878;BME280;29815;48.184;11.268;2023-12-20T02:58:47;95393.84;;;6.19;100.00
43878;BME280;29815;48.184;11.268;2023-12-20T03:01:16;95390.69;;;6.22;100.00
43878;BME280;29815;48.184;11.268;2023-12-20T03:03:46;95388.81;;;6.22;100.00
43878;BME280;29815;48.184;11.268;2023-12-20T03:06:16;95389.97;;;6.26;100.00
43878;BME280;29815;48.184;11.268;2023-12-20T03:08:46;95399.84;;;6.26;100.00
43878;BME280;29815;48.184;11.268;2023-12-20T03:11:15;95408.41;;;6.28;100.00
43878;BME280;29815;48.184;11.268;2023-12-20T03:13:46;95407.16;;;6.35;100.00
43878;BME280;29815;48.184;11.268;2023-12-20T03:16:15;95408.91;;;6.25;100.00
43878;BME280;29815;48.184;11.268;2023-12-20T03:18:45;95412.19;;;6.32;100.00
43878;BME280;29815;48.184;11.268;2023-12-20T03:21:14;95405.22;;;6.31;100.00
43878;BME280;29815;48.184;11.268;2023-12-20T03:23:43;95417.16;;;6.23;100.00
43878;BME280;29815;48.184;11.268;2023-12-20T03:26:13;95418.47;;;6.21;100.00
43878;BME280;29815;48.184;11.268;2023-12-20T03:28:43;95422.28;;;6.25;100.00
43878;BME280;29815;48.184;11.268;2023-12-20T03:31:13;95429.66;;;6.18;100.00
43878;BME280;29815;48.184;11.268;2023-12-20T03:33:42;95434.34;;;6.10;100.00
43878;BME280;29815;48.184;11.268;2023-12-20T03:36:12;95440.34;;;6.01;100.00
43878;BME280;29815;48.184;11.268;2023-12-20T03:38:41;95438.91;;;5.93;100.00
43878;BME280;29815;48.184;11.268;2023-12-20T03:41:11;95445.56;;;5.79;100.00
43878;BME280;29815;48.184;11.268;2023-12-20T03:43:40;95444.38;;;5.70;100.00
43878;BME280;29815;48.184;11.268;2023-12-20T03:46:10;95440.13;;;5.57;100.00
43878;BME280;29815;48.184;11.268;2023-12-20T03:48:40;95444.22;;;5.48;100.00
43878;BME280;29815;48.184;11.268;2023-12-20T03:51:09;95443.25;;;5.37;100.00
43878;BME280;29815;48.184;11.268;2023-12-20T03:53:39;95438.63;;;5.33;100.00
43878;BME280;29815;48.184;11.268;2023-12-20T03:56:08;95439.81;;;5.25;100.00
43878;BME280;29815;48.184;11.268;2023-12-20T03:58:37;95446.84;;;5.15;100.00
43878;BME280;29815;48.184;11.268;2023-12-20T04:01:10;95450.22;;;5.10;100.00
43878;BME280;29815;48.184;11.268;2023-12-20T04:03:41;95451.50;;;5.07;100.00
43878;BME280;29815;48.184;11.268;2023-12-20T04:06:10;95444.31;;;5.08;100.00
43878;BME280;29815;48.184;11.268;2023-12-20T04:08:39;95435.06;;;4.99;100.00
43878;BME280;29815;48.184;11.268;2023-12-20T04:11:08;95428.69;;;5.00;100.00
43878;BME280;29815;48.184;11.268;2023-12-20T04:13:38;95428.09;;;4.98;100.00
43878;BME280;29815;48.184;11.268;2023-12-20T04:16:07;95446.19;;;4.96;100.00
43878;BME280;29815;48.184;11.268;2023-12-20T04:18:38;95434.97;;;4.94;100.00
43878;BME280;29815;48.184;11.268;2023-12-20T04:21:07;95432.56;;;4.92;100.00
43878;BME280;29815;48.184;11.268;2023-12-20T04:23:37;95433.25;;;4.88;100.00
43878;BME280;29815;48.184;11.268;2023-12-20T04:26:06;95433.59;;;4.91;100.00
43878;BME280;29815;48.184;11.268;2023-12-20T04:28:35;95442.31;;;4.87;100.00
43878;BME280;29815;48.184;11.268;2023-12-20T04:31:04;95444.16;;;4.86;100.00
43878;BME280;29815;48.184;11.268;2023-12-20T04:33:34;95447.31;;;4.83;100.00
43878;BME280;29815;48.184;11.268;2023-12-20T04:36:05;95444.06;;;4.81;100.00
43878;BME280;29815;48.184;11.268;2023-12-20T04:38:36;95457.63;;;4.80;100.00
43878;BME280;29815;48.184;11.268;2023-12-20T04:41:06;95458.44;;;4.80;100.00
43878;BME280;29815;48.184;11.268;2023-12-20T04:43:35;95471.31;;;4.71;100.00
43878;BME280;29815;48.184;11.268;2023-12-20T04:46:05;95465.88;;;4.66;100.00
43878;BME280;29815;48.184;11.268;2023-12-20T04:48:34;95469.97;;;4.57;100.00
43878;BME280;29815;48.184;11.268;2023-12-20T04:51:05;95470.88;;;4.63;100.00
43878;BME280;29815;48.184;11.268;2023-12-20T04:53:34;95480.28;;;4.54;100.00
43878;BME280;29815;48.184;11.268;2023-12-20T04:56:04;95485.72;;;4.47;100.00
43878;BME280;29815;48.184;11.268;2023-12-20T04:58:33;95492.78;;;4.41;100.00
43878;BME280;29815;48.184;11.268;2023-12-20T05:01:03;95483.16;;;4.40;100.00
43878;BME280;29815;48.184;11.268;2023-12-20T05:03:32;95495.47;;;4.30;100.00
43878;BME280;29815;48.184;11.268;2023-12-20T05:06:02;95485.75;;;4.35;100.00
43878;BME280;29815;48.184;11.268;2023-12-20T05:08:32;95486.66;;;4.29;100.00
43878;BME280;29815;48.184;11.268;2023-12-20T05:11:02;95487.72;;;4.28;100.00
43878;BME280;29815;48.184;11.268;2023-12-20T05:13:32;95491.28;;;4.22;100.00
43878;BME280;29815;48.184;11.268;2023-12-20T05:16:14;95487.34;;;4.25;100.00
43878;BME280;29815;48.184;11.268;2023-12-20T05:18:47;95501.38;;;4.20;100.00
43878;BME280;29815;48.184;11.268;2023-12-20T05:21:17;95496.38;;;4.24;100.00
43878;BME280;29815;48.184;11.268;2023-12-20T05:23:48;95499.97;;;4.18;100.00
43878;BME280;29815;48.184;11.268;2023-12-20T05:26:17;95501.25;;;4.15;100.00
43878;BME280;29815;48.184;11.268;2023-12-20T05:28:46;95502.06;;;4.16;100.00
43878;BME280;29815;48.184;11.268;2023-12-20T05:31:16;95502.63;;;4.18;100.00
43878;BME280;29815;48.184;11.268;2023-12-20T05:33:45;95504.72;;;4.16;100.00
43878;BME280;29815;48.184;11.268;2023-12-20T05:36:15;95505.97;;;4.13;100.00
43878;BME280;29815;48.184;11.268;2023-12-20T05:38:44;95508.66;;;4.13;100.00
43878;BME280;29815;48.184;11.268;2023-12-20T05:41:15;95517.22;;;4.15;100.00
43878;BME280;29815;48.184;11.268;2023-12-20T05:43:44;95512.25;;;4.19;100.00
43878;BME280;29815;48.184;11.268;2023-12-20T05:46:13;95514.31;;;4.17;100.00
43878;BME280;29815;48.184;11.268;2023-12-20T05:48:43;95521.63;;;4.10;100.00
43878;BME280;29815;48.184;11.268;2023-12-20T05:51:12;95523.22;;;4.11;100.00
43878;BME280;29815;48.184;11.268;2023-12-20T05:53:41;95530.09;;;4.06;100.00
43878;BME280;29815;48.184;11.268;2023-12-20T05:56:11;95535.88;;;4.03;100.00
43878;BME280;29815;48.184;11.268;2023-12-20T05:58:42;95545.00;;;3.96;100.00
43878;BME280;29815;48.184;11.268;2023-12-20T06:01:12;95551.56;;;3.93;100.00
43878;BME280;29815;48.184;11.268;2023-12-20T06:03:44;95539.97;;;3.88;100.00
43878;BME280;29815;48.184;11.268;2023-12-20T06:06:14;95541.25;;;3.85;100.00
43878;BME280;29815;48.184;11.268;2023-12-20T06:08:45;95541.03;;;3.87;100.00
43878;BME280;29815;48.184;11.268;2023-12-20T06:11:14;95561.41;;;3.81;100.00
43878;BME280;29815;48.184;11.268;2023-12-20T06:13:45;95556.63;;;3.83;100.00
43878;BME280;29815;48.184;11.268;2023-12-20T06:16:14;95553.41;;;3.81;100.00
43878;BME280;29815;48.184;11.268;2023-12-20T06:18:44;95566.38;;;3.89;100.00
43878;BME280;29815;48.184;11.268;2023-12-20T06:21:13;95572.38;;;3.73;100.00
43878;BME280;29815;48.184;11.268;2023-12-20T06:23:42;95568.88;;;3.72;100.00
43878;BME280;29815;48.184;11.268;2023-12-20T06:26:11;95572.38;;;3.73;100.00
43878;BME280;29815;48.184;11.268;2023-12-20T06:28:41;95574.22;;;3.72;100.00
43878;BME280;29815;48.184;11.268;2023-12-20T06:31:12;95586.13;;;3.70;100.00
43878;BME280;29815;48.184;11.268;2023-12-20T06:33:41;95578.34;;;3.68;100.00
43878;BME280;29815;48.184;11.268;2023-12-20T06:36:11;95597.34;;;3.72;100.00
43878;BME280;29815;48.184;11.268;2023-12-20T06:38:41;95586.66;;;3.60;100.00
43878;BME280;29815;48.184;11.268;2023-12-20T06:41:13;95590.50;;;3.64;100.00
43878;BME280;29815;48.184;11.268;2023-12-20T06:43:43;95583.53;;;3.63;100.00
43878;BME280;29815;48.184;11.268;2023-12-20T06:46:18;95580.84;;;3.52;100.00
43878;BME280;29815;48.184;11.268;2023-12-20T06:48:48;95589.66;;;3.52;100.00
43878;BME280;29815;48.184;11.268;2023-12-20T06:51:17;95588.59;;;3.53;100.00
43878;BME280;29815;48.184;11.268;2023-12-20T06:53:48;95601.53;;;3.50;100.00
43878;BME280;29815;48.184;11.268;2023-12-20T06:56:17;95615.44;;;3.52;100.00
43878;BME280;29815;48.184;11.268;2023-12-20T06:58:47;95620.44;;;3.60;100.00
43878;BME280;29815;48.184;11.268;2023-12-20T07:01:16;95612.09;;;3.56;100.00
43878;BME280;29815;48.184;11.268;2023-12-20T07:03:47;95622.50;;;3.58;100.00
43878;BME280;29815;48.184;11.268;2023-12-20T07:06:17;95621.91;;;3.56;100.00
43878;BME280;29815;48.184;11.268;2023-12-20T07:08:47;95618.81;;;3.59;100.00
43878;BME280;29815;48.184;11.268;2023-12-20T07:11:16;95626.09;;;3.52;100.00
43878;BME280;29815;48.184;11.268;2023-12-20T07:13:45;95627.94;;;3.51;100.00
43878;BME280;29815;48.184;11.268;2023-12-20T07:16:15;95632.44;;;3.51;100.00
43878;BME280;29815;48.184;11.268;2023-12-20T07:18:44;95636.94;;;3.50;100.00
43878;BME280;29815;48.184;11.268;2023-12-20T07:21:14;95638.94;;;3.55;100.00
43878;BME280;29815;48.184;11.268;2023-12-20T07:23:44;95642.06;;;3.52;100.00
43878;BME280;29815;48.184;11.268;2023-12-20T07:26:13;95651.66;;;3.53;100.00
43878;BME280;29815;48.184;11.268;2023-12-20T07:28:42;95655.84;;;3.60;100.00
43878;BME280;29815;48.184;11.268;2023-12-20T07:31:11;95657.09;;;3.58;100.00
43878;BME280;29815;48.184;11.268;2023-12-20T07:33:41;95662.66;;;3.56;100.00
43878;BME280;29815;48.184;11.268;2023-12-20T07:36:11;95653.78;;;3.62;100.00
43878;BME280;29815;48.184;11.268;2023-12-20T07:38:42;95652.75;;;3.63;100.00
43878;BME280;29815;48.184;11.268;2023-12-20T07:41:12;95656.00;;;3.65;100.00
43878;BME280;29815;48.184;11.268;2023-12-20T07:43:41;95659.91;;;3.63;100.00
43878;BME280;29815;48.184;11.268;2023-12-20T07:46:10;95647.84;;;3.60;100.00
43878;BME280;29815;48.184;11.268;2023-12-20T07:48:39;95654.22;;;3.59;100.00
43878;BME280;29815;48.184;11.268;2023-12-20T07:51:12;95655.25;;;3.58;100.00
43878;BME280;29815;48.184;11.268;2023-12-20T07:53:43;95654.09;;;3.54;100.00
43878;BME280;29815;48.184;11.268;2023-12-20T07:56:15;95657.56;;;3.55;100.00
43878;BME280;29815;48.184;11.268;2023-12-20T07:58:45;95665.78;;;3.53;100.00
43878;BME280;29815;48.184;11.268;2023-12-20T08:01:20;95665.56;;;3.55;100.00
43878;BME280;29815;48.184;11.268;2023-12-20T08:03:50;95672.13;;;3.52;100.00
43878;BME280;29815;48.184;11.268;2023-12-20T08:06:20;95684.41;;;3.53;100.00
43878;BME280;29815;48.184;11.268;2023-12-20T08:08:51;95677.91;;;3.49;100.00
43878;BME280;29815;48.184;11.268;2023-12-20T08:11:29;95678.94;;;3.48;100.00
43878;BME280;29815;48.184;11.268;2023-12-20T08:13:58;95684.63;;;3.52;100.00
43878;BME280;29815;48.184;11.268;2023-12-20T08:16:28;95674.09;;;3.57;100.00
43878;BME280;29815;48.184;11.268;2023-12-20T08:18:57;95677.34;;;3.59;100.00
43878;BME280;29815;48.184;11.268;2023-12-20T08:21:27;95687.88;;;3.54;100.00
43878;BME280;29815;48.184;11.268;2023-12-20T08:23:57;95691.91;;;3.56;100.00
43878;BME280;29815;48.184;11.268;2023-12-20T08:26:28;95679.66;;;3.55;100.00
43878;BME280;29815;48.184;11.268;2023-12-20T08:28:57;95691.47;;;3.59;100.00
43878;BME280;29815;48.184;11.268;2023-12-20T08:31:29;95679.13;;;3.65;100.00
43878;BME280;29815;48.184;11.268;2023-12-20T08:33:58;95687.56;;;3.62;100.00
43878;BME280;29815;48.184;11.268;2023-12-20T08:36:28;95691.25;;;3.61;100.00
43878;BME280;29815;48.184;11.268;2023-12-20T08:38:59;95681.56;;;3.66;100.00
43878;BME280;29815;48.184;11.268;2023-12-20T08:41:28;95688.75;;;3.66;100.00
43878;BME280;29815;48.184;11.268;2023-12-20T08:43:58;95695.91;;;3.65;100.00
43878;BME280;29815;48.184;11.268;2023-12-20T08:46:27;95700.94;;;3.73;100.00
43878;BME280;29815;48.184;11.268;2023-12-20T08:48:56;95698.06;;;3.75;100.00
43878;BME280;29815;48.184;11.268;2023-12-20T08:51:26;95694.50;;;3.81;100.00
43878;BME280;29815;48.184;11.268;2023-12-20T08:53:55;95696.44;;;3.74;100.00
43878;BME280;29815;48.184;11.268;2023-12-20T08:56:26;95694.34;;;3.76;100.00
43878;BME280;29815;48.184;11.268;2023-12-20T08:58:55;95692.19;;;3.85;100.00
43878;BME280;29815;48.184;11.268;2023-12-20T09:01:25;95693.47;;;3.82;100.00
43878;BME280;29815;48.184;11.268;2023-12-20T09:03:54;95693.69;;;3.81;100.00
43878;BME280;29815;48.184;11.268;2023-12-20T09:06:24;95693.81;;;3.86;100.00
43878;BME280;29815;48.184;11.268;2023-12-20T09:08:53;95700.41;;;3.83;100.00
43878;BME280;29815;48.184;11.268;2023-12-20T09:11:23;95695.19;;;3.77;100.00
43878;BME280;29815;48.184;11.268;2023-12-20T09:13:54;95690.06;;;3.75;100.00
43878;BME280;29815;48.184;11.268;2023-12-20T09:16:23;95694.03;;;3.84;100.00
43878;BME280;29815;48.184;11.268;2023-12-20T09:18:53;95689.75;;;3.83;100.00
43878;BME280;29815;48.184;11.268;2023-12-20T09:21:22;95691.75;;;3.88;100.00
43878;BME280;29815;48.184;11.268;2023-12-20T09:23:52;95696.47;;;3.86;100.00
43878;BME280;29815;48.184;11.268;2023-12-20T09:26:21;95691.53;;;3.89;100.00
43878;BME280;29815;48.184;11.268;2023-12-20T09:28:50;95690.25;;;3.92;100.00
43878;BME280;29815;48.184;11.268;2023-12-20T09:31:21;95703.88;;;3.84;100.00
43878;BME280;29815;48.184;11.268;2023-12-20T09:33:51;95696.63;;;3.91;100.00
43878;BME280;29815;48.184;11.268;2023-12-20T09:36:21;95700.47;;;3.95;100.00
43878;BME280;29815;48.184;11.268;2023-12-20T09:38:50;95700.47;;;3.95;100.00
43878;BME280;29815;48.184;11.268;2023-12-20T09:41:20;95693.28;;;3.95;100.00
43878;BME280;29815;48.184;11.268;2023-12-20T09:43:50;95697.50;;;4.03;100.00
43878;BME280;29815;48.184;11.268;2023-12-20T09:46:23;95691.72;;;4.06;100.00
43878;BME280;29815;48.184;11.268;2023-12-20T09:48:53;95702.16;;;4.07;100.00
43878;BME280;29815;48.184;11.268;2023-12-20T09:51:23;95692.19;;;4.15;100.00
43878;BME280;29815;48.184;11.268;2023-12-20T09:53:52;95694.19;;;4.19;100.00
43878;BME280;29815;48.184;11.268;2023-12-20T09:56:23;95682.03;;;4.23;100.00
43878;BME280;29815;48.184;11.268;2023-12-20T09:58:53;95682.03;;;4.23;100.00
43878;BME280;29815;48.184;11.268;2023-12-20T10:01:24;95688.09;;;4.30;100.00
43878;BME280;29815;48.184;11.268;2023-12-20T10:03:54;95678.03;;;4.32;100.00
43878;BME280;29815;48.184;11.268;2023-12-20T10:06:24;95683.00;;;4.40;100.00
43878;BME280;29815;48.184;11.268;2023-12-20T10:08:54;95675.50;;;4.37;100.00
43878;BME280;29815;48.184;11.268;2023-12-20T10:11:23;95677.22;;;4.43;100.00
43878;BME280;29815;48.184;11.268;2023-12-20T10:13:52;95659.06;;;4.52;100.00
43878;BME280;29815;48.184;11.268;2023-12-20T10:16:29;95662.53;;;4.53;100.00
43878;BME280;29815;48.184;11.268;2023-12-20T10:19:00;95663.59;;;4.52;100.00
43878;BME280;29815;48.184;11.268;2023-12-20T10:21:30;95668.00;;;4.58;100.00
43878;BME280;29815;48.184;11.268;2023-12-20T10:24:00;95669.72;;;4.52;100.00
43878;BME280;29815;48.184;11.268;2023-12-20T10:26:29;95664.53;;;4.57;100.00
43878;BME280;29815;48.184;11.268;2023-12-20T10:29:00;95662.31;;;4.54;100.00
43878;BME280;29815;48.184;11.268;2023-12-20T10:31:32;95661.63;;;4.59;100.00
43878;BME280;29815;48.184;11.268;2023-12-20T10:34:02;95657.69;;;4.61;100.00
43878;BME280;29815;48.184;11.268;2023-12-20T10:36:32;95656.06;;;4.60;100.00
43878;BME280;29815;48.184;11.268;2023-12-20T10:39:04;95657.94;;;4.60;100.00
43878;BME280;29815;48.184;11.268;2023-12-20T10:41:34;95651.34;;;4.62;100.00
43878;BME280;29815;48.184;11.268;2023-12-20T10:44:09;95649.13;;;4.59;100.00
43878;BME280;29815;48.184;11.268;2023-12-20T10:46:41;95650.75;;;4.60;100.00
43878;BME280;29815;48.184;11.268;2023-12-20T10:49:15;95646.59;;;4.64;100.00
43878;BME280;29815;48.184;11.268;2023-12-20T10:51:46;95640.19;;;4.65;100.00
43878;BME280;29815;48.184;11.268;2023-12-20T10:54:16;95648.44;;;4.64;100.00
43878;BME280;29815;48.184;11.268;2023-12-20T10:56:46;95648.75;;;4.67;100.00
43878;BME280;29815;48.184;11.268;2023-12-20T10:59:15;95644.16;;;4.63;100.00
43878;BME280;29815;48.184;11.268;2023-12-20T11:01:49;95650.38;;;4.68;100.00
43878;BME280;29815;48.184;11.268;2023-12-20T11:04:21;95638.81;;;4.74;100.00
43878;BME280;29815;48.184;11.268;2023-12-20T11:06:54;95635.44;;;4.79;100.00
43878;BME280;29815;48.184;11.268;2023-12-20T11:09:31;95633.13;;;4.83;100.00
43878;BME280;29815;48.184;11.268;2023-12-20T11:12:06;95639.06;;;4.85;100.00
43878;BME280;29815;48.184;11.268;2023-12-20T11:14:40;95638.38;;;4.89;100.00
43878;BME280;29815;48.184;11.268;2023-12-20T11:17:15;95636.13;;;4.98;100.00
43878;BME280;29815;48.184;11.268;2023-12-20T11:20:06;95628.38;;;4.96;100.00
43878;BME280;29815;48.184;11.268;2023-12-20T11:22:39;95630.22;;;5.07;100.00
43878;BME280;29815;48.184;11.268;2023-12-20T11:25:21;95623.28;;;5.06;100.00
43878;BME280;29815;48.184;11.268;2023-12-20T11:28:07;95624.63;;;5.21;100.00
43878;BME280;29815;48.184;11.268;2023-12-20T11:30:41;95613.97;;;5.21;100.00
43878;BME280;29815;48.184;11.268;2023-12-20T11:33:12;95619.41;;;5.26;100.00
43878;BME280;29815;48.184;11.268;2023-12-20T11:35:42;95621.38;;;5.30;100.00
43878;BME280;29815;48.184;11.268;2023-12-20T11:38:13;95616.84;;;5.31;100.00
43878;BME280;29815;48.184;11.268;2023-12-20T11:40:43;95607.00;;;5.31;100.00
43878;BME280;29815;48.184;11.268;2023-12-20T11:43:13;95609.88;;;5.30;100.00
43878;BME280;29815;48.184;11.268;2023-12-20T11:46:02;95615.00;;;5.31;100.00
43878;BME280;29815;48.184;11.268;2023-12-20T11:48:38;95606.28;;;5.36;100.00
43878;BME280;29815;48.184;11.268;2023-12-20T11:51:11;95613.44;;;5.47;100.00
43878;BME280;29815;48.184;11.268;2023-12-20T11:53:41;95607.22;;;5.41;100.00
43878;BME280;29815;48.184;11.268;2023-12-20T11:56:11;95608.25;;;5.40;100.00
43878;BME280;29815;48.184;11.268;2023-12-20T11:58:40;95605.44;;;5.47;100.00
43878;BME280;29815;48.184;11.268;2023-12-20T12:01:10;95609.88;;;5.41;100.00
43878;BME280;29815;48.184;11.268;2023-12-20T12:03:41;95604.38;;;5.48;100.00
43878;BME280;29815;48.184;11.268;2023-12-20T12:06:12;95600.34;;;5.46;100.00
43878;BME280;29815;48.184;11.268;2023-12-20T12:08:41;95595.34;;;5.49;100.00
43878;BME280;29815;48.184;11.268;2023-12-20T12:11:11;95602.28;;;5.50;100.00
43878;BME280;29815;48.184;11.268;2023-12-20T12:13:40;95586.75;;;5.47;100.00
43878;BME280;29815;48.184;11.268;2023-12-20T12:16:10;95588.47;;;5.53;100.00
43878;BME280;29815;48.184;11.268;2023-12-20T12:18:39;95596.94;;;5.62;100.00
43878;BME280;29815;48.184;11.268;2023-12-20T12:21:18;95591.94;;;5.65;100.00
43878;BME280;29815;48.184;11.268;2023-12-20T12:23:49;95594.72;;;5.59;100.00
43878;BME280;29815;48.184;11.268;2023-12-20T12:26:19;95584.19;;;5.52;100.00
43878;BME280;29815;48.184;11.268;2023-12-20T12:28:48;95589.75;;;5.51;100.00
43878;BME280;29815;48.184;11.268;2023-12-20T12:31:19;95590.09;;;5.54;100.00
43878;BME280;29815;48.184;11.268;2023-12-20T12:33:49;95603.63;;;5.36;100.00
43878;BME280;29815;48.184;11.268;2023-12-20T12:36:19;95598.22;;;4.96;100.00
43878;BME280;29815;48.184;11.268;2023-12-20T12:38:49;95595.22;;;4.81;100.00
43878;BME280;29815;48.184;11.268;2023-12-20T12:41:18;95591.03;;;4.73;100.00
43878;BME280;29815;48.184;11.268;2023-12-20T12:43:47;95586.84;;;4.42;100.00
43878;BME280;29815;48.184;11.268;2023-12-20T12:46:17;95583.94;;;4.20;100.00
43878;BME280;29815;48.184;11.268;2023-12-20T12:48:46;95594.22;;;4.17;100.00
43878;BME280;29815;48.184;11.268;2023-12-20T12:51:15;95606.50;;;4.06;100.00
43878;BME280;29815;48.184;11.268;2023-12-20T12:53:46;95601.75;;;4.08;100.00
43878;BME280;29815;48.184;11.268;2023-12-20T12:56:15;95605.56;;;4.00;100.00
43878;BME280;29815;48.184;11.268;2023-12-20T12:58:45;95614.09;;;3.91;100.00
43878;BME280;29815;48.184;11.268;2023-12-20T13:01:14;95606.81;;;3.98;100.00
43878;BME280;29815;48.184;11.268;2023-12-20T13:03:43;95609.66;;;3.85;100.00
43878;BME280;29815;48.184;11.268;2023-12-20T13:06:13;95607.09;;;3.78;100.00
43878;BME280;29815;48.184;11.268;2023-12-20T13:08:42;95603.28;;;3.74;100.00